Time;durP1;ratioP1;P1;durP2;ratioP2;P2;SDS_P1;SDS_P2;PMS_P1;PMS_P2;Temp;Humidity;BMP_temperature;BMP_pressure;BME280_temperature;BME280_humidity;BME280_pressure;Samples;Min_cycle;Max_cycle;Signal;HPM_P1;HPM_P2
2022/07/19 00:01:41;;;;;;;8.23;2.13;;;;;;;;;;5052008;28;20213;-88
2022/07/19 00:04:10;;;;;;;5.45;2.00;;;;;;;;;;5039009;28;20227;-88
2022/07/19 00:06:37;;;;;;;2.25;1.85;;;;;;;;;;5034394;28;20514;-87
2022/07/19 00:09:05;;;;;;;9.25;2.08;;;;;;;;;;5039229;28;20234;-90
2022/07/19 00:11:32;;;;;;;5.07;1.95;;;;;;;;;;5032872;28;20613;-88
2022/07/19 00:13:59;;;;;;;3.55;2.20;;;;;;;;;;5032905;28;20234;-87
2022/07/19 00:16:26;;;;;;;6.43;2.20;;;;;;;;;;5041174;28;20578;-87
2022/07/19 00:18:54;;;;;;;3.40;2.17;;;;;;;;;;5064784;28;20567;-85
2022/07/19 00:21:22;;;;;;;2.20;2.00;;;;;;;;;;5048795;28;20207;-87
2022/07/19 00:23:49;;;;;;;3.75;2.13;;;;;;;;;;5033305;28;20238;-88
2022/07/19 00:26:17;;;;;;;5.75;2.15;;;;;;;;;;5034707;28;20211;-88
2022/07/19 00:28:44;;;;;;;8.02;2.60;;;;;;;;;;5051080;28;20237;-87
2022/07/19 00:31:11;;;;;;;2.83;2.10;;;;;;;;;;5052873;28;20194;-88
2022/07/19 00:33:38;;;;;;;2.28;2.00;;;;;;;;;;5043588;28;20231;-87
2022/07/19 00:36:05;;;;;;;2.65;1.98;;;;;;;;;;5046565;28;20213;-88
2022/07/19 00:38:36;;;;;;;3.25;1.90;;;;;;;;;;5050899;28;20236;-88
2022/07/19 00:41:04;;;;;;;5.45;2.35;;;;;;;;;;5052396;28;20191;-88
2022/07/19 00:43:31;;;;;;;10.57;2.50;;;;;;;;;;5056499;28;20509;-88
2022/07/19 00:45:58;;;;;;;3.67;2.22;;;;;;;;;;5043001;28;20194;-88
2022/07/19 00:48:25;;;;;;;2.60;2.30;;;;;;;;;;5036643;28;20226;-88
2022/07/19 00:50:53;;;;;;;2.08;1.88;;;;;;;;;;5036798;28;20598;-88
2022/07/19 00:53:20;;;;;;;4.13;2.10;;;;;;;;;;5036377;28;20242;-88
2022/07/19 00:55:49;;;;;;;2.97;2.10;;;;;;;;;;5044277;28;20202;-87
2022/07/19 00:58:18;;;;;;;5.30;1.92;;;;;;;;;;5047846;28;20249;-88
2022/07/19 01:00:45;;;;;;;2.20;2.00;;;;;;;;;;5036556;28;20207;-88
2022/07/19 01:03:14;;;;;;;4.28;2.35;;;;;;;;;;5036307;28;20540;-87
2022/07/19 01:05:41;;;;;;;2.30;2.10;;;;;;;;;;5037601;28;20280;-87
2022/07/19 01:08:08;;;;;;;3.97;2.20;;;;;;;;;;5029366;28;20219;-87
2022/07/19 01:10:35;;;;;;;5.63;1.95;;;;;;;;;;5038546;28;20206;-91
2022/07/19 01:13:09;;;;;;;5.95;2.33;;;;;;;;;;5035887;28;20238;-90
2022/07/19 01:15:42;;;;;;;4.60;2.55;;;;;;;;;;5047514;28;20209;-91
2022/07/19 01:18:10;;;;;;;4.00;2.17;;;;;;;;;;5053322;28;20287;-91
2022/07/19 01:20:37;;;;;;;7.88;2.20;;;;;;;;;;5037309;28;20199;-91
2022/07/19 01:23:08;;;;;;;3.83;2.63;;;;;;;;;;5043912;28;20241;-91
2022/07/19 01:25:36;;;;;;;6.13;2.10;;;;;;;;;;5044158;28;20206;-89
2022/07/19 01:28:04;;;;;;;5.67;2.37;;;;;;;;;;5043721;28;20320;-91
2022/07/19 01:30:33;;;;;;;3.57;2.50;;;;;;;;;;5056835;28;20604;-91
2022/07/19 01:33:03;;;;;;;3.20;2.40;;;;;;;;;;5032063;28;20226;-91
2022/07/19 01:35:34;;;;;;;6.10;2.50;;;;;;;;;;5056664;28;20201;-91
2022/07/19 01:38:03;;;;;;;3.47;2.00;;;;;;;;;;5040461;28;20250;-92
2022/07/19 01:40:33;;;;;;;3.30;2.57;;;;;;;;;;5037019;28;20482;-91
2022/07/19 01:43:00;;;;;;;4.40;2.17;;;;;;;;;;5025131;28;20237;-92
2022/07/19 01:45:29;;;;;;;4.17;2.37;;;;;;;;;;5035988;28;20249;-91
2022/07/19 01:47:57;;;;;;;5.43;2.60;;;;;;;;;;5042103;28;20260;-91
2022/07/19 01:50:25;;;;;;;6.93;2.33;;;;;;;;;;5056609;28;20205;-90
2022/07/19 01:53:01;;;;;;;7.63;2.63;;;;;;;;;;5043365;28;20249;-91
2022/07/19 01:55:29;;;;;;;2.40;2.03;;;;;;;;;;5050552;28;20191;-91
2022/07/19 01:57:57;;;;;;;6.63;2.23;;;;;;;;;;5052597;28;20254;-91
2022/07/19 02:00:28;;;;;;;3.27;2.30;;;;;;;;;;5044349;28;20210;-91
2022/07/19 02:02:55;;;;;;;8.27;3.50;;;;;;;;;;5035348;28;20831;-90
2022/07/19 02:05:23;;;;;;;8.87;3.90;;;;;;;;;;5052508;28;20210;-90
2022/07/19 02:07:52;;;;;;;5.97;2.50;;;;;;;;;;5052711;28;20312;-90
2022/07/19 02:10:20;;;;;;;3.63;2.27;;;;;;;;;;5036110;28;20210;-91
2022/07/19 02:12:48;;;;;;;4.63;2.30;;;;;;;;;;5034783;28;20230;-91
2022/07/19 02:15:19;;;;;;;3.50;2.50;;;;;;;;;;5043255;28;20487;-91
2022/07/19 02:17:46;;;;;;;2.40;2.20;;;;;;;;;;5049428;28;20254;-91
2022/07/19 02:20:14;;;;;;;7.00;2.60;;;;;;;;;;5035618;28;20586;-91
2022/07/19 02:22:44;;;;;;;4.00;1.97;;;;;;;;;;5035658;28;20257;-91
2022/07/19 02:25:11;;;;;;;3.17;2.60;;;;;;;;;;5037386;28;20464;-91
2022/07/19 02:27:44;;;;;;;6.70;2.77;;;;;;;;;;5038575;28;20222;-90
2022/07/19 02:30:12;;;;;;;3.33;2.80;;;;;;;;;;5048659;28;20317;-91
2022/07/19 02:32:41;;;;;;;2.60;2.40;;;;;;;;;;5038177;28;20198;-90
2022/07/19 02:35:12;;;;;;;4.40;2.40;;;;;;;;;;5047619;28;20282;-91
2022/07/19 02:37:39;;;;;;;6.17;2.70;;;;;;;;;;5024751;28;20268;-90
2022/07/19 02:40:07;;;;;;;7.87;2.67;;;;;;;;;;5033050;28;20610;-90
2022/07/19 02:42:43;;;;;;;5.53;2.33;;;;;;;;;;5034994;28;20458;-91
2022/07/19 02:45:11;;;;;;;9.10;2.80;;;;;;;;;;5036100;28;20206;-90
2022/07/19 02:47:40;;;;;;;3.43;2.40;;;;;;;;;;5034565;28;20602;-91
2022/07/19 02:50:09;;;;;;;4.37;2.60;;;;;;;;;;5036804;28;20201;-90
2022/07/19 02:52:36;;;;;;;5.60;2.57;;;;;;;;;;5034897;28;20209;-91
2022/07/19 02:55:04;;;;;;;5.37;2.63;;;;;;;;;;5035635;28;20195;-91
2022/07/19 02:57:31;;;;;;;3.17;2.43;;;;;;;;;;5035617;28;20222;-91
2022/07/19 03:00:01;;;;;;;7.83;2.77;;;;;;;;;;5045441;28;20294;-90
2022/07/19 03:02:29;;;;;;;4.60;3.03;;;;;;;;;;5053881;28;20300;-91
2022/07/19 03:04:58;;;;;;;8.57;2.90;;;;;;;;;;5044777;28;20207;-90
2022/07/19 03:07:26;;;;;;;7.13;2.80;;;;;;;;;;5036365;28;20202;-91
2022/07/19 03:09:58;;;;;;;6.00;2.67;;;;;;;;;;5041194;28;20621;-91
2022/07/19 03:12:25;;;;;;;3.33;2.43;;;;;;;;;;5037995;28;20243;-91
2022/07/19 03:14:54;;;;;;;5.03;2.67;;;;;;;;;;5052730;28;20209;-91
2022/07/19 03:17:22;;;;;;;7.03;2.40;;;;;;;;;;5052304;28;20607;-90
2022/07/19 03:19:51;;;;;;;5.20;2.83;;;;;;;;;;5061121;28;20588;-90
2022/07/19 03:22:19;;;;;;;2.70;2.50;;;;;;;;;;5063479;28;20286;-89
2022/07/19 03:24:47;;;;;;;7.83;2.70;;;;;;;;;;5068702;28;20784;-90
2022/07/19 03:27:15;;;;;;;4.73;2.70;;;;;;;;;;5057693;28;20589;-90
2022/07/19 03:29:42;;;;;;;7.80;2.73;;;;;;;;;;5065095;28;20230;-90
2022/07/19 03:32:09;;;;;;;6.27;2.83;;;;;;;;;;5060651;28;20195;-89
2022/07/19 03:34:36;;;;;;;3.70;2.70;;;;;;;;;;5035895;28;20302;-88
2022/07/19 03:37:03;;;;;;;4.20;2.33;;;;;;;;;;5034634;28;20319;-91
2022/07/19 03:39:30;;;;;;;2.40;2.20;;;;;;;;;;5034118;28;20249;-90
2022/07/19 03:41:59;;;;;;;5.60;2.40;;;;;;;;;;5034382;28;20205;-91
2022/07/19 03:44:26;;;;;;;4.17;2.30;;;;;;;;;;5035079;28;20243;-90
2022/07/19 03:46:53;;;;;;;6.50;2.63;;;;;;;;;;5034030;28;20293;-90
2022/07/19 03:49:20;;;;;;;4.13;2.83;;;;;;;;;;5033674;28;20235;-91
2022/07/19 03:51:48;;;;;;;6.93;2.63;;;;;;;;;;5034304;28;20264;-90
2022/07/19 03:54:15;;;;;;;5.63;2.70;;;;;;;;;;5034168;28;20321;-91
2022/07/19 03:56:44;;;;;;;4.90;2.67;;;;;;;;;;5034721;28;20207;-90
2022/07/19 03:59:15;;;;;;;11.80;3.07;;;;;;;;;;5034224;28;20238;-91
2022/07/19 04:01:42;;;;;;;7.07;3.13;;;;;;;;;;5034955;28;20524;-90
2022/07/19 04:04:09;;;;;;;4.73;2.60;;;;;;;;;;5037007;28;20748;-91
2022/07/19 04:06:36;;;;;;;15.13;3.20;;;;;;;;;;5049963;28;20213;-89
2022/07/19 04:09:04;;;;;;;12.03;2.97;;;;;;;;;;5037294;28;20321;-91
2022/07/19 04:11:31;;;;;;;3.40;2.60;;;;;;;;;;5033939;28;20210;-90
2022/07/19 04:13:58;;;;;;;4.20;2.80;;;;;;;;;;5033864;28;20238;-91
2022/07/19 04:16:27;;;;;;;5.53;2.70;;;;;;;;;;5034972;28;20509;-90
2022/07/19 04:18:54;;;;;;;5.30;2.60;;;;;;;;;;5037518;28;20335;-90
2022/07/19 04:21:21;;;;;;;2.90;2.40;;;;;;;;;;5039345;28;20248;-90
2022/07/19 04:23:48;;;;;;;5.07;3.07;;;;;;;;;;5037703;28;20238;-91
2022/07/19 04:26:15;;;;;;;5.57;3.10;;;;;;;;;;5037688;28;20764;-91
2022/07/19 04:28:43;;;;;;;5.60;3.10;;;;;;;;;;5037194;28;20226;-90
2022/07/19 04:31:10;;;;;;;5.07;2.63;;;;;;;;;;5037723;28;20272;-90
2022/07/19 04:33:39;;;;;;;3.30;2.40;;;;;;;;;;5036975;28;20337;-90
2022/07/19 04:36:06;;;;;;;3.07;2.50;;;;;;;;;;5037765;28;20215;-90
2022/07/19 04:38:37;;;;;;;5.13;2.30;;;;;;;;;;5036795;28;20518;-91
2022/07/19 04:41:05;;;;;;;2.80;2.60;;;;;;;;;;5037735;28;20211;-91
2022/07/19 04:43:34;;;;;;;6.30;3.03;;;;;;;;;;5037991;28;20721;-89
2022/07/19 04:46:01;;;;;;;3.07;2.10;;;;;;;;;;5038154;28;20234;-90
2022/07/19 04:48:28;;;;;;;3.33;2.40;;;;;;;;;;5037919;28;20226;-91
2022/07/19 04:50:57;;;;;;;5.43;2.80;;;;;;;;;;5037172;28;20214;-90
2022/07/19 04:53:24;;;;;;;7.43;2.77;;;;;;;;;;5037667;28;20250;-90
2022/07/19 04:55:51;;;;;;;10.53;3.07;;;;;;;;;;5037678;28;20207;-91
2022/07/19 04:58:18;;;;;;;5.93;2.97;;;;;;;;;;5037718;28;20243;-91
2022/07/19 05:00:45;;;;;;;4.73;3.83;;;;;;;;;;5037857;28;20206;-90
2022/07/19 05:03:12;;;;;;;5.23;3.10;;;;;;;;;;5037274;28;20565;-90
2022/07/19 05:05:40;;;;;;;5.97;3.03;;;;;;;;;;5038057;28;20290;-89
2022/07/19 05:08:08;;;;;;;8.97;2.63;;;;;;;;;;5037650;28;20222;-90
2022/07/19 05:10:35;;;;;;;5.20;3.03;;;;;;;;;;5040332;28;20211;-89
2022/07/19 05:13:03;;;;;;;4.70;3.00;;;;;;;;;;5042174;28;20230;-90
2022/07/19 05:15:32;;;;;;;3.23;2.93;;;;;;;;;;5042761;28;20202;-89
2022/07/19 05:17:59;;;;;;;6.20;3.10;;;;;;;;;;5039888;28;20230;-90
2022/07/19 05:20:26;;;;;;;3.90;3.47;;;;;;;;;;5039547;28;20301;-90
2022/07/19 05:22:53;;;;;;;5.80;3.00;;;;;;;;;;5038369;28;20235;-90
2022/07/19 05:25:22;;;;;;;3.30;2.80;;;;;;;;;;5038937;28;20605;-90
2022/07/19 05:27:49;;;;;;;4.77;3.40;;;;;;;;;;5037713;28;20235;-90
2022/07/19 05:30:17;;;;;;;6.20;3.07;;;;;;;;;;5037486;28;20203;-90
2022/07/19 05:32:44;;;;;;;6.60;3.40;;;;;;;;;;5035930;28;20249;-91
2022/07/19 05:35:11;;;;;;;4.33;3.53;;;;;;;;;;5037144;28;20612;-90
2022/07/19 05:37:38;;;;;;;8.50;3.60;;;;;;;;;;5036166;28;20381;-90
2022/07/19 05:40:06;;;;;;;6.53;3.53;;;;;;;;;;5036894;28;20482;-91
2022/07/19 05:42:37;;;;;;;9.67;3.73;;;;;;;;;;5036128;28;20195;-90
2022/07/19 05:45:04;;;;;;;6.50;3.90;;;;;;;;;;5037701;28;20206;-90
2022/07/19 05:47:31;;;;;;;5.27;3.70;;;;;;;;;;5036270;28;20209;-90
2022/07/19 05:49:59;;;;;;;11.17;3.87;;;;;;;;;;5036393;28;20571;-90
2022/07/19 05:52:26;;;;;;;5.80;3.30;;;;;;;;;;5035181;28;20245;-90
2022/07/19 05:54:53;;;;;;;6.03;3.47;;;;;;;;;;5036367;28;20499;-89
2022/07/19 05:57:20;;;;;;;6.90;3.80;;;;;;;;;;5036489;28;20609;-91
2022/07/19 05:59:49;;;;;;;7.33;3.47;;;;;;;;;;5035554;28;20685;-90
2022/07/19 06:02:17;;;;;;;8.27;3.93;;;;;;;;;;5035593;28;20199;-91
2022/07/19 06:04:44;;;;;;;6.47;3.57;;;;;;;;;;5035284;28;20249;-90
2022/07/19 06:07:13;;;;;;;14.63;4.03;;;;;;;;;;5035647;28;20309;-91
2022/07/19 06:09:41;;;;;;;7.93;3.97;;;;;;;;;;5033563;28;20260;-91
2022/07/19 06:12:09;;;;;;;5.00;2.97;;;;;;;;;;5035536;28;20203;-91
2022/07/19 06:30:07;;;;;;;3.75;2.95;;;;;;;;;;5091453;22;20702;-82
2022/07/19 06:32:35;;;;;;;4.47;2.95;;;;;;;;;;5066070;28;20202;-81
2022/07/19 06:35:02;;;;;;;6.85;4.03;;;;;;;;;;5049070;28;20214;-81
2022/07/19 06:37:29;;;;;;;9.05;3.90;;;;;;;;;;5047105;28;20210;-80
2022/07/19 06:39:57;;;;;;;5.50;3.47;;;;;;;;;;5047529;28;20230;-81
2022/07/19 06:42:24;;;;;;;4.38;3.05;;;;;;;;;;5048454;28;20203;-81
2022/07/19 06:44:51;;;;;;;4.28;3.10;;;;;;;;;;5047299;28;20210;-80
2022/07/19 06:47:19;;;;;;;5.85;3.08;;;;;;;;;;5048434;28;20207;-81
2022/07/19 06:49:47;;;;;;;4.95;3.38;;;;;;;;;;5046312;28;20233;-80
2022/07/19 06:52:14;;;;;;;3.65;2.83;;;;;;;;;;5058179;28;20203;-80
2022/07/19 06:54:41;;;;;;;5.63;2.97;;;;;;;;;;5059250;28;20238;-79
2022/07/19 06:57:08;;;;;;;4.00;2.60;;;;;;;;;;5062062;28;20255;-80
2022/07/19 06:59:35;;;;;;;4.30;2.78;;;;;;;;;;5032513;28;20230;-79
2022/07/19 07:02:03;;;;;;;4.88;2.95;;;;;;;;;;5035258;28;20191;-82
2022/07/19 07:04:31;;;;;;;7.07;2.60;;;;;;;;;;5033943;28;20245;-79
2022/07/19 07:06:59;;;;;;;5.50;3.08;;;;;;;;;;5044470;28;20206;-80
2022/07/19 07:09:26;;;;;;;4.53;2.38;;;;;;;;;;5056782;28;20611;-85
2022/07/19 07:11:53;;;;;;;3.20;2.28;;;;;;;;;;5052021;28;20210;-84
2022/07/19 07:14:20;;;;;;;3.05;1.90;;;;;;;;;;5033403;28;20234;-84
2022/07/19 07:16:47;;;;;;;7.28;2.22;;;;;;;;;;5033388;28;20207;-84
2022/07/19 07:19:14;;;;;;;3.95;1.77;;;;;;;;;;5038206;28;20223;-84
2022/07/19 07:21:42;;;;;;;3.17;1.85;;;;;;;;;;5032511;28;20203;-85
2022/07/19 07:24:09;;;;;;;3.88;2.17;;;;;;;;;;5032183;28;20230;-84
2022/07/19 07:26:36;;;;;;;7.35;3.78;;;;;;;;;;5032236;28;20237;-84
2022/07/19 07:29:04;;;;;;;3.42;2.28;;;;;;;;;;5031169;28;20242;-85
2022/07/19 07:31:31;;;;;;;2.08;1.90;;;;;;;;;;5065538;28;20627;-84
2022/07/19 07:33:58;;;;;;;2.92;2.00;;;;;;;;;;5071577;28;20236;-85
2022/07/19 07:36:25;;;;;;;2.78;1.90;;;;;;;;;;5071787;28;20209;-84
2022/07/19 07:38:53;;;;;;;1.92;1.77;;;;;;;;;;5070927;28;20712;-85
2022/07/19 07:41:20;;;;;;;2.40;2.00;;;;;;;;;;5071868;28;20212;-84
2022/07/19 07:43:47;;;;;;;5.63;1.90;;;;;;;;;;5071116;28;20229;-84
2022/07/19 07:46:14;;;;;;;4.78;1.92;;;;;;;;;;5071851;28;20291;-85
2022/07/19 07:48:42;;;;;;;7.03;2.45;;;;;;;;;;5070886;28;20237;-85
2022/07/19 07:51:09;;;;;;;4.97;2.03;;;;;;;;;;5068750;28;20205;-85
2022/07/19 07:53:36;;;;;;;2.75;1.90;;;;;;;;;;5079691;28;20232;-85
2022/07/19 07:56:05;;;;;;;2.10;1.70;;;;;;;;;;5072706;28;20209;-80
2022/07/19 07:58:32;;;;;;;1.60;1.50;;;;;;;;;;5062658;28;20241;-79
2022/07/19 08:00:59;;;;;;;5.88;1.67;;;;;;;;;;5083184;28;20764;-79
2022/07/19 08:03:26;;;;;;;7.18;1.75;;;;;;;;;;5095027;28;20777;-79
2022/07/19 08:05:53;;;;;;;2.58;1.75;;;;;;;;;;5078115;28;20210;-79
2022/07/19 08:08:20;;;;;;;2.70;1.73;;;;;;;;;;5074394;28;20237;-79
2022/07/19 08:10:47;;;;;;;3.13;1.75;;;;;;;;;;5080385;28;20707;-79
2022/07/19 08:13:15;;;;;;;3.28;1.58;;;;;;;;;;5081180;28;20233;-79
2022/07/19 08:15:42;;;;;;;2.88;1.70;;;;;;;;;;5086136;28;20205;-80
2022/07/19 08:18:09;;;;;;;1.80;1.70;;;;;;;;;;5084985;28;20228;-79
2022/07/19 08:20:37;;;;;;;1.65;1.55;;;;;;;;;;5089791;28;20231;-80
2022/07/19 08:23:04;;;;;;;3.95;1.60;;;;;;;;;;5085084;28;20256;-79
2022/07/19 08:25:32;;;;;;;2.60;1.60;;;;;;;;;;5089877;28;20339;-80
2022/07/19 08:27:59;;;;;;;3.42;1.67;;;;;;;;;;5088735;28;20256;-80
2022/07/19 08:30:27;;;;;;;4.35;1.75;;;;;;;;;;5082298;28;20308;-80
2022/07/19 08:32:54;;;;;;;1.67;1.52;;;;;;;;;;5057729;28;20229;-80
2022/07/19 08:35:22;;;;;;;1.88;1.77;;;;;;;;;;5064722;28;20194;-80
2022/07/19 08:37:49;;;;;;;2.20;1.38;;;;;;;;;;5069672;28;20236;-81
2022/07/19 08:40:16;;;;;;;1.90;1.48;;;;;;;;;;5072972;28;20237;-80
2022/07/19 08:42:43;;;;;;;1.67;1.58;;;;;;;;;;5071068;28;21290;-80
2022/07/19 08:45:11;;;;;;;1.70;1.60;;;;;;;;;;5068609;28;20206;-81
2022/07/19 08:47:39;;;;;;;2.25;1.73;;;;;;;;;;5068488;28;20261;-79
2022/07/19 08:50:07;;;;;;;1.35;1.25;;;;;;;;;;5066342;28;20222;-81
2022/07/19 08:52:34;;;;;;;1.95;1.60;;;;;;;;;;5056264;28;20218;-80
2022/07/19 08:55:02;;;;;;;2.20;1.50;;;;;;;;;;5048541;28;20229;-81
2022/07/19 09:00:14;;;;;;;3.17;1.60;;;;;;;;;;5050217;28;20553;-80
2022/07/19 09:02:52;;;;;;;1.42;1.38;;;;;;;;;;5049791;28;20222;-80
2022/07/19 09:05:19;;;;;;;1.50;1.40;;;;;;;;;;5046299;28;20523;-80
2022/07/19 09:08:01;;;;;;;1.80;1.70;;;;;;;;;;5048206;28;20842;-80
2022/07/19 09:10:28;;;;;;;2.55;1.70;;;;;;;;;;5047234;28;20234;-82
2022/07/19 09:13:03;;;;;;;1.70;1.60;;;;;;;;;;5046740;28;20234;-81
2022/07/19 09:15:54;;;;;;;2.63;2.42;;;;;;;;;;5050131;28;20210;-80
2022/07/19 09:18:25;;;;;;;3.13;1.45;;;;;;;;;;5044522;28;20737;-81
2022/07/19 09:20:54;;;;;;;3.75;1.75;;;;;;;;;;5040654;28;20331;-83
2022/07/19 09:23:21;;;;;;;1.58;1.23;;;;;;;;;;5037846;28;20240;-84
2022/07/19 09:25:49;;;;;;;1.02;1.02;;;;;;;;;;5041445;28;20210;-86
2022/07/19 09:28:17;;;;;;;2.00;1.50;;;;;;;;;;5032791;28;20671;-85
2022/07/19 09:30:45;;;;;;;2.47;1.48;;;;;;;;;;5033022;28;20222;-86
2022/07/19 09:33:13;;;;;;;3.47;1.65;;;;;;;;;;5032764;28;20615;-85
2022/07/19 09:35:43;;;;;;;4.45;1.70;;;;;;;;;;5032917;28;20206;-85
2022/07/19 09:38:20;;;;;;;1.50;1.40;;;;;;;;;;5032004;28;20233;-85
2022/07/19 09:40:50;;;;;;;3.13;1.58;;;;;;;;;;5046373;28;20249;-85
2022/07/19 09:43:19;;;;;;;2.63;1.27;;;;;;;;;;5033293;28;20241;-85
2022/07/19 09:45:46;;;;;;;3.00;1.50;;;;;;;;;;5033307;28;20283;-85
2022/07/19 09:48:13;;;;;;;1.75;1.30;;;;;;;;;;5031871;28;20248;-86
2022/07/19 09:50:40;;;;;;;1.33;1.27;;;;;;;;;;5032263;28;20682;-85
2022/07/19 09:53:09;;;;;;;2.35;1.30;;;;;;;;;;5032435;28;20264;-86
2022/07/19 09:55:36;;;;;;;2.53;1.50;;;;;;;;;;5032698;28;20210;-85
2022/07/19 09:58:03;;;;;;;2.13;1.38;;;;;;;;;;5036594;28;20256;-86
2022/07/19 10:00:31;;;;;;;1.40;1.30;;;;;;;;;;5052816;28;20256;-86
2022/07/19 10:02:59;;;;;;;2.22;1.23;;;;;;;;;;5051316;28;20256;-86
2022/07/19 10:05:26;;;;;;;1.40;1.30;;;;;;;;;;5052571;28;20206;-87
2022/07/19 10:07:54;;;;;;;1.80;1.65;;;;;;;;;;5051605;28;20259;-85
2022/07/19 10:10:23;;;;;;;1.70;1.60;;;;;;;;;;5052572;28;20222;-85
2022/07/19 10:12:52;;;;;;;2.75;1.38;;;;;;;;;;5052061;28;20233;-85
2022/07/19 10:15:19;;;;;;;3.47;2.15;;;;;;;;;;5051392;28;20206;-85
2022/07/19 10:17:56;;;;;;;2.15;1.40;;;;;;;;;;5051413;28;20286;-86
2022/07/19 10:20:24;;;;;;;1.42;1.33;;;;;;;;;;5052851;28;20263;-85
2022/07/19 10:22:52;;;;;;;1.77;1.40;;;;;;;;;;5052269;28;20697;-87
2022/07/19 10:25:19;;;;;;;1.60;1.50;;;;;;;;;;5053169;28;20212;-88
2022/07/19 10:27:49;;;;;;;3.22;1.55;;;;;;;;;;5051702;28;20233;-88
2022/07/19 10:30:24;;;;;;;1.60;1.50;;;;;;;;;;5058846;28;20739;-88
2022/07/19 10:32:52;;;;;;;1.27;1.17;;;;;;;;;;5071450;28;20700;-87
2022/07/19 10:35:19;;;;;;;2.25;1.58;;;;;;;;;;5072778;28;20209;-88
2022/07/19 10:37:47;;;;;;;1.88;1.30;;;;;;;;;;5071123;28;20228;-87
2022/07/19 10:40:14;;;;;;;1.60;1.30;;;;;;;;;;5071937;28;20780;-87
2022/07/19 10:42:56;;;;;;;1.92;1.42;;;;;;;;;;5071802;28;20204;-87
2022/07/19 10:45:25;;;;;;;1.55;1.30;;;;;;;;;;5071150;28;20209;-88
2022/07/19 10:47:59;;;;;;;1.98;1.63;;;;;;;;;;5070921;28;20238;-87
2022/07/19 10:50:42;;;;;;;4.47;1.10;;;;;;;;;;5071801;28;20224;-87
2022/07/19 10:53:09;;;;;;;2.00;1.30;;;;;;;;;;5072003;28;20239;-87
2022/07/19 10:55:37;;;;;;;1.95;1.20;;;;;;;;;;5072259;28;20205;-88
2022/07/19 10:58:11;;;;;;;2.33;1.42;;;;;;;;;;5070219;28;20231;-89
2022/07/19 11:00:44;;;;;;;2.22;1.40;;;;;;;;;;5080061;28;20223;-88
2022/07/19 11:03:28;;;;;;;1.17;1.10;;;;;;;;;;5070939;28;20603;-88
2022/07/19 11:05:56;;;;;;;1.60;1.40;;;;;;;;;;5072468;28;20188;-87
2022/07/19 11:08:32;;;;;;;1.45;1.23;;;;;;;;;;5071472;28;20231;-87
2022/07/19 11:11:03;;;;;;;1.73;1.40;;;;;;;;;;5071962;28;20239;-87
2022/07/19 11:13:30;;;;;;;2.42;1.20;;;;;;;;;;5071649;28;20232;-88
2022/07/19 11:16:00;;;;;;;1.65;1.52;;;;;;;;;;5071534;28;20216;-87
2022/07/19 11:18:29;;;;;;;1.20;1.20;;;;;;;;;;5071054;28;20294;-88
2022/07/19 11:20:58;;;;;;;1.90;1.23;;;;;;;;;;5071695;28;20584;-88
2022/07/19 11:23:25;;;;;;;4.55;1.40;;;;;;;;;;5070552;28;20230;-87
2022/07/19 11:25:53;;;;;;;2.83;1.50;;;;;;;;;;5071160;28;20674;-87
2022/07/19 11:28:24;;;;;;;2.75;1.25;;;;;;;;;;5069988;28;20232;-87
2022/07/19 11:30:51;;;;;;;2.72;1.55;;;;;;;;;;5059633;28;20661;-87
2022/07/19 11:33:21;;;;;;;2.85;1.80;;;;;;;;;;5043001;28;20233;-87
2022/07/19 11:35:55;;;;;;;1.40;1.30;;;;;;;;;;5030517;28;20225;-87
2022/07/19 11:38:22;;;;;;;2.33;1.40;;;;;;;;;;5031018;28;20234;-87
2022/07/19 11:40:49;;;;;;;2.47;1.58;;;;;;;;;;5051945;28;20208;-89
2022/07/19 11:43:16;;;;;;;4.35;1.73;;;;;;;;;;5051626;28;20232;-87
2022/07/19 11:45:45;;;;;;;3.42;1.58;;;;;;;;;;5043753;28;20209;-87
2022/07/19 11:48:12;;;;;;;1.75;1.65;;;;;;;;;;5037809;28;20230;-87
2022/07/19 11:50:43;;;;;;;4.55;1.70;;;;;;;;;;5012136;28;20272;-87
2022/07/19 11:53:10;;;;;;;2.70;1.20;;;;;;;;;;5018338;28;20658;-87
2022/07/19 11:55:38;;;;;;;1.50;1.35;;;;;;;;;;5032359;28;20584;-87
2022/07/19 11:58:09;;;;;;;1.35;1.25;;;;;;;;;;5026933;28;20713;-88
2022/07/19 12:00:38;;;;;;;2.33;1.60;;;;;;;;;;5031246;28;20198;-87
2022/07/19 12:03:07;;;;;;;1.70;1.58;;;;;;;;;;5029978;28;20240;-87
2022/07/19 12:05:36;;;;;;;1.50;1.40;;;;;;;;;;5031418;28;20213;-87
2022/07/19 12:08:05;;;;;;;1.75;1.42;;;;;;;;;;5030009;28;20245;-87
2022/07/19 12:10:36;;;;;;;3.08;1.67;;;;;;;;;;5031157;28;20287;-89
2022/07/19 12:13:03;;;;;;;1.60;1.50;;;;;;;;;;5030529;28;20237;-88
2022/07/19 12:15:43;;;;;;;1.90;1.50;;;;;;;;;;5031051;28;20217;-88
2022/07/19 12:18:12;;;;;;;1.60;1.50;;;;;;;;;;5031004;28;20234;-91
2022/07/19 12:20:39;;;;;;;2.10;1.60;;;;;;;;;;5029324;28;20599;-89
2022/07/19 12:23:15;;;;;;;1.65;1.55;;;;;;;;;;5011485;28;20642;-90
2022/07/19 12:25:42;;;;;;;2.47;1.50;;;;;;;;;;5011887;28;20678;-90
2022/07/19 12:28:09;;;;;;;1.35;1.25;;;;;;;;;;5012250;28;20581;-90
2022/07/19 12:30:36;;;;;;;2.05;1.50;;;;;;;;;;5041554;28;20275;-89
2022/07/19 12:33:08;;;;;;;4.72;1.52;;;;;;;;;;5065515;28;20736;-88
2022/07/19 12:35:42;;;;;;;2.03;1.90;;;;;;;;;;5053868;28;20198;-89
2022/07/19 12:38:11;;;;;;;1.70;1.60;;;;;;;;;;5060113;28;20228;-91
2022/07/19 12:40:40;;;;;;;2.75;1.30;;;;;;;;;;5076577;28;20431;-89
2022/07/19 12:43:11;;;;;;;2.45;1.50;;;;;;;;;;5074709;28;20248;-88
2022/07/19 12:45:41;;;;;;;2.40;1.50;;;;;;;;;;5075252;28;20655;-90
2022/07/19 12:48:10;;;;;;;2.20;1.60;;;;;;;;;;5074104;28;20232;-88
2022/07/19 12:50:39;;;;;;;1.58;1.48;;;;;;;;;;5075560;28;20213;-89
2022/07/19 12:53:07;;;;;;;4.63;1.40;;;;;;;;;;5075495;28;20248;-89
2022/07/19 12:55:35;;;;;;;2.30;1.70;;;;;;;;;;5076846;28;20205;-89
2022/07/19 12:58:04;;;;;;;3.15;1.70;;;;;;;;;;5076108;28;20232;-88
2022/07/19 13:00:32;;;;;;;2.78;1.73;;;;;;;;;;5077118;28;20224;-89
2022/07/19 13:02:59;;;;;;;2.97;1.70;;;;;;;;;;5076964;28;20255;-89
2022/07/19 13:05:27;;;;;;;1.55;1.45;;;;;;;;;;5078158;28;20228;-89
2022/07/19 13:07:54;;;;;;;3.40;1.42;;;;;;;;;;5077558;28;20626;-88
2022/07/19 13:10:22;;;;;;;2.10;1.38;;;;;;;;;;5076381;28;20236;-89
2022/07/19 13:12:49;;;;;;;5.43;1.80;;;;;;;;;;5075529;28;20762;-88
2022/07/19 13:15:17;;;;;;;3.40;1.85;;;;;;;;;;5069486;28;20213;-88
2022/07/19 13:17:44;;;;;;;2.90;1.73;;;;;;;;;;5074909;28;20229;-87
2022/07/19 13:20:12;;;;;;;2.75;1.52;;;;;;;;;;5076402;28;20220;-87
2022/07/19 13:22:39;;;;;;;1.60;1.50;;;;;;;;;;5074849;28;20208;-88
2022/07/19 13:25:08;;;;;;;2.08;1.90;;;;;;;;;;5074709;28;20251;-87
2022/07/19 13:27:35;;;;;;;2.28;1.58;;;;;;;;;;5074324;28;20240;-87
2022/07/19 13:30:02;;;;;;;1.80;1.70;;;;;;;;;;5073197;28;20243;-89
2022/07/19 13:32:30;;;;;;;1.45;1.38;;;;;;;;;;5074334;28;20232;-89
2022/07/19 13:34:57;;;;;;;2.50;1.55;;;;;;;;;;5075729;28;20189;-88
2022/07/19 13:37:25;;;;;;;3.05;1.70;;;;;;;;;;5079924;28;20207;-89
2022/07/19 13:39:53;;;;;;;2.33;1.60;;;;;;;;;;5074375;28;20223;-89
2022/07/19 13:42:20;;;;;;;2.33;1.55;;;;;;;;;;5074942;28;20189;-89
2022/07/19 13:44:47;;;;;;;1.80;1.70;;;;;;;;;;5054708;28;20679;-89
2022/07/19 13:47:14;;;;;;;1.75;1.63;;;;;;;;;;5056243;28;20201;-89
2022/07/19 13:49:45;;;;;;;3.92;1.70;;;;;;;;;;5092647;28;20243;-90
2022/07/19 13:52:12;;;;;;;3.55;1.50;;;;;;;;;;5089381;28;20702;-90
2022/07/19 13:54:39;;;;;;;3.05;1.60;;;;;;;;;;5074513;28;20684;-90
2022/07/19 13:57:06;;;;;;;2.55;2.10;;;;;;;;;;5076295;28;20197;-89
2022/07/19 13:59:33;;;;;;;1.88;1.50;;;;;;;;;;5074952;28;20236;-89
2022/07/19 14:02:00;;;;;;;4.57;1.75;;;;;;;;;;5086399;28;20243;-89
2022/07/19 14:04:28;;;;;;;2.30;1.90;;;;;;;;;;5057890;28;20233;-91
2022/07/19 14:06:56;;;;;;;3.30;1.63;;;;;;;;;;5056140;28;20213;-91
2022/07/19 14:09:23;;;;;;;1.92;1.73;;;;;;;;;;5074016;28;20252;-90
2022/07/19 14:11:50;;;;;;;1.35;1.25;;;;;;;;;;5076856;28;20243;-89
2022/07/19 14:14:17;;;;;;;2.53;1.60;;;;;;;;;;5051741;28;20240;-90
2022/07/19 14:16:45;;;;;;;1.80;1.50;;;;;;;;;;5063596;28;20189;-91
2022/07/19 14:19:13;;;;;;;3.40;1.70;;;;;;;;;;5062734;28;20226;-90
2022/07/19 14:21:40;;;;;;;2.58;1.67;;;;;;;;;;5064212;28;20185;-91
2022/07/19 14:24:09;;;;;;;1.63;1.20;;;;;;;;;;5038499;28;20249;-88
2022/07/19 14:26:41;;;;;;;4.63;1.70;;;;;;;;;;5056317;28;20212;-92
2022/07/19 14:29:19;;;;;;;2.65;1.40;;;;;;;;;;5055580;28;20241;-91
2022/07/19 14:31:46;;;;;;;1.70;1.60;;;;;;;;;;5058128;28;20225;-92
2022/07/19 14:34:19;;;;;;;2.38;1.65;;;;;;;;;;5056914;28;20239;-92
2022/07/19 14:36:46;;;;;;;2.95;1.65;;;;;;;;;;5055477;28;20232;-89
2022/07/19 14:39:15;;;;;;;2.70;1.80;;;;;;;;;;5054359;28;20245;-89
2022/07/19 14:41:42;;;;;;;2.90;1.50;;;;;;;;;;5056027;28;20208;-90
2022/07/19 14:44:10;;;;;;;4.38;1.73;;;;;;;;;;5053721;28;20244;-88
2022/07/19 14:46:39;;;;;;;1.70;1.60;;;;;;;;;;5053659;28;20190;-88
2022/07/19 14:49:06;;;;;;;4.20;1.70;;;;;;;;;;5053227;28;20229;-89
2022/07/19 14:51:34;;;;;;;2.05;1.63;;;;;;;;;;5054031;28;20704;-90
2022/07/19 14:54:02;;;;;;;5.80;1.80;;;;;;;;;;5067219;28;20239;-89
2022/07/19 14:56:30;;;;;;;3.25;1.80;;;;;;;;;;5074421;28;20189;-90
2022/07/19 14:58:57;;;;;;;2.35;1.80;;;;;;;;;;5060499;28;20612;-90
2022/07/19 15:01:24;;;;;;;2.00;1.80;;;;;;;;;;5053743;28;20212;-91
2022/07/19 15:03:52;;;;;;;2.40;1.90;;;;;;;;;;5053534;28;20324;-90
2022/07/19 15:06:19;;;;;;;3.40;1.58;;;;;;;;;;5054564;28;20309;-90
2022/07/19 15:08:46;;;;;;;2.78;1.73;;;;;;;;;;5046085;28;20238;-90